createdAt,value
2018-10-19T00:02:08.065Z,99.90
2018-10-19T00:04:37.098Z,99.90
2018-10-19T00:07:06.548Z,99.90
2018-10-19T00:09:35.560Z,99.90
2018-10-19T00:12:04.921Z,99.90
2018-10-19T00:14:33.922Z,99.90
2018-10-19T00:17:03.043Z,99.90
2018-10-19T00:19:32.192Z,99.90
2018-10-19T00:22:01.247Z,99.90
2018-10-19T00:24:30.262Z,99.90
2018-10-19T00:26:59.294Z,99.90
2018-10-19T00:29:28.513Z,99.90
2018-10-19T00:31:57.545Z,99.90
2018-10-19T00:34:26.581Z,99.90
2018-10-19T00:36:55.668Z,99.90
2018-10-19T00:39:24.876Z,99.90
2018-10-19T00:41:53.903Z,99.90
2018-10-19T00:44:22.931Z,99.90
2018-10-19T00:46:52.065Z,99.90
2018-10-19T00:49:21.314Z,99.90
2018-10-19T00:51:50.389Z,99.90
2018-10-19T00:54:19.821Z,99.90
2018-10-19T00:56:48.899Z,99.90
2018-10-19T00:59:17.998Z,99.90
2018-10-19T01:01:47.261Z,99.90
2018-10-19T01:04:16.249Z,99.90
2018-10-19T01:06:45.281Z,99.90
2018-10-19T01:09:14.380Z,99.90
2018-10-19T01:11:43.515Z,99.90
2018-10-19T01:14:12.525Z,99.90
2018-10-19T01:16:41.562Z,99.90
2018-10-19T01:19:10.773Z,99.90
2018-10-19T01:21:39.811Z,99.90
2018-10-19T01:24:09.173Z,99.90
2018-10-19T01:26:38.195Z,99.90
2018-10-19T01:29:07.240Z,99.90
2018-10-19T01:31:36.497Z,99.90
2018-10-19T01:34:05.567Z,99.90
2018-10-19T01:36:40.062Z,99.90
2018-10-19T01:39:09.367Z,99.90
2018-10-19T01:41:38.562Z,99.90
2018-10-19T01:44:08.237Z,99.90
2018-10-19T01:46:37.577Z,99.90
2018-10-19T01:49:06.667Z,99.90
2018-10-19T01:51:35.706Z,99.90
2018-10-19T01:54:04.879Z,99.90
2018-10-19T01:56:33.960Z,99.90
2018-10-19T01:59:03.191Z,99.90
2018-10-19T02:01:32.392Z,99.90
2018-10-19T02:04:01.457Z,99.90
2018-10-19T02:06:30.789Z,99.90
2018-10-19T02:08:59.833Z,99.90
2018-10-19T02:11:29.078Z,99.90
2018-10-19T02:13:58.084Z,99.90
2018-10-19T02:16:27.105Z,99.90
2018-10-19T02:18:56.133Z,99.90
2018-10-19T02:21:25.166Z,99.90
2018-10-19T02:23:54.222Z,99.90
2018-10-19T02:26:23.244Z,99.90
2018-10-19T02:28:52.305Z,99.90
2018-10-19T02:31:21.323Z,99.90
2018-10-19T02:33:50.404Z,99.90
2018-10-19T02:36:19.430Z,99.90
2018-10-19T02:38:48.675Z,99.90
2018-10-19T02:41:17.749Z,99.90
2018-10-19T02:43:46.928Z,99.90
2018-10-19T02:46:15.982Z,99.90
2018-10-19T02:48:44.964Z,99.90
2018-10-19T02:51:14.062Z,99.90
2018-10-19T02:53:43.313Z,99.90
2018-10-19T02:56:12.345Z,99.90
2018-10-19T02:58:41.407Z,99.90
2018-10-19T03:01:10.462Z,99.90
2018-10-19T03:03:39.903Z,99.90
2018-10-19T03:06:09.313Z,99.90
2018-10-19T03:08:38.333Z,99.90
2018-10-19T03:11:07.655Z,99.90
2018-10-19T03:13:36.880Z,99.90
2018-10-19T03:16:06.345Z,99.90
2018-10-19T03:18:37.202Z,99.90
2018-10-19T03:21:06.476Z,99.90
2018-10-19T03:23:35.673Z,99.90
2018-10-19T03:26:05.335Z,99.90
2018-10-19T03:28:34.351Z,99.90
2018-10-19T03:31:03.823Z,99.90
2018-10-19T03:33:32.982Z,99.90
2018-10-19T03:36:02.063Z,99.90
2018-10-19T03:38:31.083Z,99.90
2018-10-19T03:41:00.174Z,99.90
2018-10-19T03:43:29.370Z,99.90
2018-10-19T03:45:58.357Z,99.90
2018-10-19T03:48:27.404Z,99.90
2018-10-19T03:50:56.466Z,99.90
2018-10-19T03:53:25.673Z,99.90
2018-10-19T03:55:54.670Z,99.90
2018-10-19T03:58:23.715Z,99.90
2018-10-19T04:00:52.975Z,99.90
2018-10-19T04:03:22.190Z,99.90
2018-10-19T04:05:51.389Z,99.90
2018-10-19T04:08:20.483Z,99.90
2018-10-19T04:10:49.547Z,99.90
2018-10-19T04:13:18.764Z,99.90
2018-10-19T04:15:47.800Z,99.90
2018-10-19T04:18:16.877Z,99.90
2018-10-19T04:20:45.998Z,99.90
2018-10-19T04:23:15.305Z,99.90
2018-10-19T04:25:44.447Z,99.90
2018-10-19T04:28:13.848Z,99.90
2018-10-19T04:30:42.924Z,99.90
2018-10-19T04:33:12.172Z,99.90
2018-10-19T04:35:41.321Z,99.90
2018-10-19T04:38:10.569Z,99.90
2018-10-19T04:40:39.697Z,99.90
2018-10-19T04:43:09.379Z,99.90
2018-10-19T04:45:38.438Z,99.90
2018-10-19T04:48:07.793Z,99.90
2018-10-19T04:50:36.848Z,99.90
2018-10-19T04:53:06.034Z,99.90
2018-10-19T04:55:35.290Z,99.90
2018-10-19T04:58:04.341Z,99.90
2018-10-19T05:00:33.430Z,99.90
2018-10-19T05:03:02.520Z,99.90
2018-10-19T05:05:31.873Z,99.90
2018-10-19T05:08:01.006Z,99.90
2018-10-19T05:10:30.427Z,99.90
2018-10-19T05:12:59.913Z,99.90
2018-10-19T05:15:29.133Z,99.90
2018-10-19T05:17:58.389Z,99.90
2018-10-19T05:20:27.496Z,99.90
2018-10-19T05:22:56.552Z,99.90
2018-10-19T05:25:25.796Z,99.90
2018-10-19T05:27:54.870Z,99.90
2018-10-19T05:30:23.905Z,99.90
2018-10-19T05:32:53.205Z,99.90
2018-10-19T05:35:22.351Z,99.90
2018-10-19T05:37:51.373Z,99.90
2018-10-19T05:40:20.672Z,99.90
2018-10-19T05:42:49.768Z,99.90
2018-10-19T05:45:18.833Z,99.90
2018-10-19T05:47:47.898Z,99.90
2018-10-19T05:50:17.011Z,99.90
2018-10-19T05:52:46.179Z,99.90
2018-10-19T05:55:15.229Z,99.90
2018-10-19T05:57:44.345Z,99.90
2018-10-19T06:00:13.491Z,99.90
2018-10-19T06:02:42.723Z,99.90
2018-10-19T06:05:12.422Z,99.90
2018-10-19T06:07:41.624Z,99.90
2018-10-19T06:10:10.737Z,99.90
2018-10-19T06:12:39.876Z,99.90
2018-10-19T06:15:09.547Z,99.90
2018-10-19T06:17:38.615Z,99.90
2018-10-19T06:20:07.906Z,99.90
2018-10-19T06:22:37.107Z,99.90
2018-10-19T06:25:06.266Z,99.90
2018-10-19T06:27:35.301Z,99.90
2018-10-19T06:30:04.850Z,99.90
2018-10-19T06:32:33.883Z,99.90
2018-10-19T06:35:02.956Z,99.90
2018-10-19T06:37:32.272Z,99.90
2018-10-19T06:40:01.302Z,99.90
2018-10-19T06:42:30.352Z,99.90
2018-10-19T06:44:59.381Z,99.90
2018-10-19T06:47:28.498Z,99.90
2018-10-19T06:49:57.786Z,99.90
2018-10-19T06:52:26.974Z,99.90
2018-10-19T06:54:55.989Z,99.90
2018-10-19T06:57:25.030Z,99.90
2018-10-19T06:59:54.080Z,99.90
2018-10-19T07:02:23.146Z,99.90
2018-10-19T07:04:52.667Z,99.90
2018-10-19T07:07:21.886Z,99.90
2018-10-19T07:09:50.973Z,99.90
2018-10-19T07:12:20.027Z,99.90
2018-10-19T07:14:49.280Z,99.90
2018-10-19T07:17:18.367Z,99.90
2018-10-19T07:19:47.403Z,99.90
2018-10-19T07:22:16.457Z,99.90
2018-10-19T07:24:45.494Z,99.90
2018-10-19T07:27:14.525Z,99.90
2018-10-19T07:29:43.651Z,99.90
2018-10-19T07:32:12.747Z,99.90
2018-10-19T07:34:41.930Z,99.90
2018-10-19T07:37:10.997Z,99.90
2018-10-19T07:39:40.036Z,99.90
2018-10-19T07:42:09.123Z,99.90
2018-10-19T07:44:38.417Z,99.90
2018-10-19T07:47:07.523Z,99.90
2018-10-19T07:49:36.777Z,99.90
2018-10-19T07:52:06.138Z,99.90
2018-10-19T07:54:35.200Z,99.90
2018-10-19T07:57:04.577Z,99.90
2018-10-19T07:59:33.597Z,99.90
2018-10-19T08:02:02.646Z,99.90
2018-10-19T08:04:32.173Z,99.90
2018-10-19T08:07:01.237Z,99.90
2018-10-19T08:09:30.366Z,99.90
2018-10-19T08:11:59.407Z,99.90
2018-10-19T08:14:28.589Z,99.90
2018-10-19T08:16:57.794Z,99.90
2018-10-19T08:19:27.195Z,99.90
2018-10-19T08:21:56.209Z,99.90
2018-10-19T08:24:25.306Z,99.90
2018-10-19T08:26:54.572Z,99.90
2018-10-19T08:29:23.557Z,99.90
2018-10-19T08:31:52.574Z,99.90
2018-10-19T08:34:21.592Z,99.90
2018-10-19T08:36:50.794Z,99.90
2018-10-19T08:39:19.859Z,99.90
2018-10-19T08:41:48.939Z,99.90
2018-10-19T08:44:18.135Z,99.90
2018-10-19T08:46:47.163Z,99.90
2018-10-19T08:49:16.323Z,99.90
2018-10-19T08:51:45.427Z,99.90
2018-10-19T08:54:14.528Z,99.90
2018-10-19T08:56:43.529Z,99.90
2018-10-19T08:59:12.591Z,99.90
2018-10-19T09:01:42.074Z,99.90
2018-10-19T09:04:11.149Z,99.90
2018-10-19T09:06:40.798Z,99.90
2018-10-19T09:09:11.212Z,99.90
2018-10-19T09:11:40.935Z,99.90
2018-10-19T09:14:21.204Z,99.90
2018-10-19T09:16:50.341Z,99.90
2018-10-19T09:19:19.363Z,99.90
2018-10-19T09:21:48.381Z,99.90
2018-10-19T09:24:17.461Z,99.90
2018-10-19T09:26:46.548Z,99.90
2018-10-19T09:29:15.726Z,99.90
2018-10-19T09:31:45.019Z,99.90
2018-10-19T09:34:14.149Z,99.90
2018-10-19T09:36:43.390Z,99.90
2018-10-19T09:39:14.239Z,99.90
2018-10-19T09:41:43.548Z,99.90
2018-10-19T09:44:12.696Z,99.90
2018-10-19T09:46:42.079Z,99.90
2018-10-19T09:49:12.544Z,99.90
2018-10-19T09:51:42.802Z,99.90
2018-10-19T09:54:12.452Z,99.90
2018-10-19T09:56:41.864Z,99.90
2018-10-19T09:59:11.003Z,99.90
2018-10-19T10:01:41.289Z,99.90
2018-10-19T10:04:10.373Z,99.90
2018-10-19T10:06:39.408Z,99.60
2018-10-19T10:09:13.511Z,99.30
2018-10-19T10:11:42.762Z,98.80
2018-10-19T10:14:11.981Z,98.90
2018-10-19T10:16:40.981Z,98.60
2018-10-19T10:19:10.081Z,98.20
2018-10-19T10:21:39.251Z,98.00
2018-10-19T10:24:08.309Z,97.80
2018-10-19T10:26:37.350Z,97.30
2018-10-19T10:29:07.091Z,97.20
2018-10-19T10:31:36.218Z,96.70
2018-10-19T10:34:05.651Z,96.20
2018-10-19T10:36:34.744Z,95.30
2018-10-19T10:39:05.556Z,93.40
2018-10-19T10:41:34.946Z,90.70
2018-10-19T10:44:04.020Z,86.70
2018-10-19T10:46:33.461Z,81.90
2018-10-19T10:49:02.924Z,79.40
2018-10-19T10:51:32.147Z,77.20
2018-10-19T10:54:01.205Z,76.50
2018-10-19T10:56:30.654Z,75.40
2018-10-19T10:58:59.916Z,76.10
2018-10-19T11:01:29.592Z,78.80
2018-10-19T11:03:58.804Z,81.00
2018-10-19T11:06:28.223Z,82.00
2018-10-19T11:08:57.489Z,84.10
2018-10-19T11:11:26.745Z,83.90
2018-10-19T11:13:55.841Z,79.50
2018-10-19T11:16:25.078Z,77.40
2018-10-19T11:18:54.145Z,74.40
2018-10-19T11:21:23.178Z,71.60
2018-10-19T11:23:52.350Z,70.20
2018-10-19T11:26:21.509Z,68.80
2018-10-19T11:28:50.602Z,66.60
2018-10-19T11:31:19.698Z,66.60
2018-10-19T11:33:48.728Z,64.90
2018-10-19T11:36:17.779Z,63.70
2018-10-19T11:38:46.805Z,64.00
2018-10-19T11:41:15.805Z,64.40
2018-10-19T11:43:45.439Z,62.50
2018-10-19T11:46:15.136Z,60.60
2018-10-19T11:48:44.330Z,59.20
2018-10-19T11:51:13.534Z,59.60
2018-10-19T11:53:42.583Z,62.60
2018-10-19T11:56:11.608Z,65.20
2018-10-19T11:58:40.746Z,66.50
2018-10-19T12:01:09.957Z,68.60
2018-10-19T12:03:39.219Z,70.10
2018-10-19T12:06:08.394Z,71.10
2018-10-19T12:08:37.423Z,72.20
2018-10-19T12:11:06.870Z,72.80
2018-10-19T12:13:36.006Z,72.20
2018-10-19T12:16:07.997Z,72.20
2018-10-19T12:18:37.479Z,71.70
2018-10-19T12:21:06.905Z,69.30
2018-10-19T12:23:36.124Z,65.80
2018-10-19T12:26:05.706Z,62.80
2018-10-19T12:28:35.680Z,61.30
2018-10-19T12:31:04.769Z,59.60
2018-10-19T12:33:34.508Z,58.20
2018-10-19T12:36:04.854Z,56.70
2018-10-19T12:38:34.461Z,54.40
2018-10-19T12:41:04.543Z,55.00
2018-10-19T12:43:36.788Z,56.40
2018-10-19T12:46:28.600Z,58.40
2018-10-19T12:48:58.349Z,59.20
2018-10-19T12:51:34.752Z,59.00
2018-10-19T12:54:04.682Z,57.10
2018-10-19T12:56:34.482Z,54.80
2018-10-19T12:59:04.435Z,53.70
2018-10-19T13:01:34.198Z,52.50
2018-10-19T13:04:04.068Z,50.80
2018-10-19T13:06:33.696Z,49.30
2018-10-19T13:09:05.183Z,47.30
2018-10-19T13:11:34.945Z,46.00
2018-10-19T13:14:05.276Z,44.80
2018-10-19T13:16:35.428Z,44.50
2018-10-19T13:19:05.152Z,45.20
2018-10-19T13:21:35.189Z,44.80
2018-10-19T13:24:05.428Z,44.70
2018-10-19T13:26:35.624Z,45.80
2018-10-19T13:29:06.226Z,45.60
2018-10-19T13:31:35.802Z,44.50
2018-10-19T13:34:05.672Z,44.90
2018-10-19T13:36:35.467Z,44.30
2018-10-19T13:39:07.872Z,43.30
2018-10-19T13:41:37.903Z,43.10
2018-10-19T13:44:07.824Z,43.10
2018-10-19T13:46:37.835Z,43.20
2018-10-19T13:49:07.681Z,42.10
2018-10-19T13:51:37.391Z,43.10
2018-10-19T13:54:07.067Z,43.70
2018-10-19T13:56:37.471Z,44.10
2018-10-19T13:59:07.352Z,43.40
2018-10-19T14:01:37.207Z,44.50
2018-10-19T14:04:06.941Z,44.10
2018-10-19T14:06:36.570Z,44.80
2018-10-19T14:09:08.826Z,45.10
2018-10-19T14:11:39.111Z,45.00
2018-10-19T14:14:08.850Z,44.90
2018-10-19T14:16:38.470Z,44.50
2018-10-19T14:19:08.274Z,44.80
2018-10-19T14:21:38.148Z,45.80
2018-10-19T14:24:07.747Z,45.50
2018-10-19T14:26:37.383Z,46.10
2018-10-19T14:29:07.199Z,45.90
2018-10-19T14:31:36.994Z,46.40
2018-10-19T14:34:06.593Z,46.60
2018-10-19T14:36:36.201Z,46.50
2018-10-19T14:39:06.713Z,46.90
2018-10-19T14:41:36.435Z,47.10
2018-10-19T14:44:06.122Z,47.70
2018-10-19T14:46:35.778Z,48.20
2018-10-19T14:49:05.661Z,49.00
2018-10-19T14:51:35.320Z,50.30
2018-10-19T14:54:05.546Z,52.40
2018-10-19T14:56:35.212Z,55.40
2018-10-19T14:59:07.302Z,58.00
2018-10-19T15:01:36.723Z,61.70
2018-10-19T15:04:08.697Z,65.20
2018-10-19T15:06:37.930Z,67.30
2018-10-19T15:09:09.802Z,69.30
2018-10-19T15:11:39.899Z,70.80
2018-10-19T15:14:09.101Z,72.40
2018-10-19T15:16:38.297Z,74.40
2018-10-19T15:19:07.627Z,76.00
2018-10-19T15:21:41.510Z,77.80
2018-10-19T15:24:10.943Z,80.20
2018-10-19T15:26:41.923Z,82.20
2018-10-19T15:29:11.067Z,84.30
2018-10-19T15:31:40.465Z,85.90
2018-10-19T15:34:09.597Z,87.30
2018-10-19T15:36:38.872Z,88.80
2018-10-19T15:39:10.084Z,90.00
2018-10-19T15:41:39.532Z,90.60
2018-10-19T15:44:08.634Z,91.10
2018-10-19T15:46:37.712Z,91.50
2018-10-19T15:49:06.930Z,91.80
2018-10-19T15:51:36.112Z,92.30
2018-10-19T15:54:05.232Z,92.60
2018-10-19T15:56:34.480Z,93.00
2018-10-19T15:59:03.603Z,93.20
2018-10-19T16:01:32.626Z,93.50
2018-10-19T16:04:01.971Z,93.80
2018-10-19T16:06:30.965Z,94.10
2018-10-19T16:09:00.031Z,94.50
2018-10-19T16:11:29.251Z,95.00
2018-10-19T16:13:58.271Z,95.50
2018-10-19T16:16:27.323Z,95.60
2018-10-19T16:18:56.396Z,96.10
2018-10-19T16:21:25.432Z,96.50
2018-10-19T16:23:54.563Z,96.80
2018-10-19T16:26:23.811Z,97.20
2018-10-19T16:28:53.149Z,97.80
2018-10-19T16:31:22.236Z,98.10
2018-10-19T16:33:51.326Z,98.50
2018-10-19T16:36:20.672Z,98.90
2018-10-19T16:38:49.779Z,99.30
2018-10-19T16:41:18.970Z,99.80
2018-10-19T16:43:48.048Z,99.90
2018-10-19T16:46:17.536Z,99.90
2018-10-19T16:48:46.755Z,99.90
2018-10-19T16:51:15.883Z,99.90
2018-10-19T16:53:44.968Z,99.90
2018-10-19T16:56:14.162Z,99.90
2018-10-19T16:58:43.160Z,99.90
2018-10-19T17:01:12.163Z,99.90
2018-10-19T17:03:41.228Z,99.90
2018-10-19T17:06:10.337Z,99.90
2018-10-19T17:08:39.556Z,99.90
2018-10-19T17:11:08.668Z,99.90
2018-10-19T17:13:37.844Z,99.90
2018-10-19T17:16:06.919Z,99.90
2018-10-19T17:18:36.005Z,99.90
2018-10-19T17:21:05.510Z,99.90
2018-10-19T17:23:34.792Z,99.90
2018-10-19T17:26:04.023Z,99.90
2018-10-19T17:28:33.113Z,99.90
2018-10-19T17:31:02.272Z,99.90
2018-10-19T17:33:31.555Z,99.90
2018-10-19T17:36:00.825Z,99.90
2018-10-19T17:38:30.105Z,99.90
2018-10-19T17:40:59.259Z,99.90
2018-10-19T17:43:28.574Z,99.90
2018-10-19T17:45:57.761Z,99.90
2018-10-19T17:48:27.158Z,99.90
2018-10-19T17:50:56.201Z,99.90
2018-10-19T17:53:25.405Z,99.90
2018-10-19T17:55:54.457Z,99.90
2018-10-19T17:58:23.491Z,99.90
2018-10-19T18:00:52.498Z,99.90
2018-10-19T18:03:21.548Z,99.90
2018-10-19T18:05:50.621Z,99.90
2018-10-19T18:08:19.643Z,99.90
2018-10-19T18:10:48.878Z,99.90
2018-10-19T18:13:17.898Z,99.90
2018-10-19T18:15:46.985Z,99.90
2018-10-19T18:18:16.181Z,99.90
2018-10-19T18:20:45.257Z,99.90
2018-10-19T18:23:14.559Z,99.90
2018-10-19T18:25:43.527Z,99.90
2018-10-19T18:28:12.565Z,99.90
2018-10-19T18:30:41.642Z,99.90
2018-10-19T18:33:10.959Z,99.90
2018-10-19T18:35:40.164Z,99.90
2018-10-19T18:38:09.374Z,99.90
2018-10-19T18:40:38.641Z,99.90
2018-10-19T18:43:07.740Z,99.90
2018-10-19T18:45:36.895Z,99.90
2018-10-19T18:48:06.112Z,99.90
2018-10-19T18:50:35.441Z,99.90
2018-10-19T18:53:05.525Z,99.90
2018-10-19T18:55:34.786Z,99.90
2018-10-19T18:58:03.829Z,99.90
2018-10-19T19:00:32.846Z,99.90
2018-10-19T19:03:01.884Z,99.90
2018-10-19T19:05:31.160Z,99.90
2018-10-19T19:08:00.274Z,99.90
2018-10-19T19:10:29.468Z,99.90
2018-10-19T19:13:03.745Z,99.90
2018-10-19T19:15:32.889Z,99.90
2018-10-19T19:18:01.937Z,99.90
2018-10-19T19:20:31.280Z,99.90
2018-10-19T19:23:00.372Z,99.90
2018-10-19T19:25:34.849Z,99.90
2018-10-19T19:28:04.685Z,99.90
2018-10-19T19:30:33.785Z,99.90
2018-10-19T19:33:08.062Z,99.90
2018-10-19T19:35:38.034Z,99.90
2018-10-19T19:38:07.148Z,99.90
2018-10-19T19:40:41.693Z,99.90
2018-10-19T19:43:10.780Z,99.90
2018-10-19T19:45:39.860Z,99.90
2018-10-19T19:48:14.062Z,99.90
2018-10-19T19:50:43.086Z,99.90
2018-10-19T19:53:12.143Z,99.90
2018-10-19T19:55:41.362Z,99.90
2018-10-19T19:58:10.428Z,99.90
2018-10-19T20:00:39.808Z,99.90
2018-10-19T20:03:09.132Z,99.90
2018-10-19T20:05:38.116Z,99.90
2018-10-19T20:08:07.202Z,99.90
2018-10-19T20:10:36.414Z,99.90
2018-10-19T20:13:05.953Z,99.90
2018-10-19T20:15:34.971Z,99.90
2018-10-19T20:18:04.078Z,99.90
2018-10-19T20:20:33.382Z,99.90
2018-10-19T20:23:02.442Z,99.90
2018-10-19T20:25:31.684Z,99.90
2018-10-19T20:28:00.816Z,99.90
2018-10-19T20:30:29.909Z,99.90
2018-10-19T20:32:58.995Z,99.90
2018-10-19T20:35:28.053Z,99.90
2018-10-19T20:37:57.179Z,99.90
2018-10-19T20:40:26.339Z,99.90
2018-10-19T20:42:55.595Z,99.90
2018-10-19T20:45:24.652Z,99.90
2018-10-19T20:47:54.054Z,99.90
2018-10-19T20:50:23.105Z,99.90
2018-10-19T20:52:52.368Z,99.90
2018-10-19T20:55:21.432Z,99.90
2018-10-19T20:57:50.471Z,99.90
2018-10-19T21:00:19.485Z,99.90
2018-10-19T21:02:48.504Z,99.90
2018-10-19T21:05:17.578Z,99.90
2018-10-19T21:07:46.630Z,99.90
2018-10-19T21:10:15.622Z,99.90
2018-10-19T21:12:44.675Z,99.90
2018-10-19T21:15:14.245Z,99.90
2018-10-19T21:17:43.344Z,99.90
2018-10-19T21:20:12.984Z,99.90
2018-10-19T21:22:42.132Z,99.90
2018-10-19T21:25:12.070Z,99.90
2018-10-19T21:27:41.083Z,99.90
2018-10-19T21:30:12.047Z,99.90
2018-10-19T21:32:41.132Z,99.90
2018-10-19T21:35:10.213Z,99.90
2018-10-19T21:37:39.455Z,99.90
2018-10-19T21:40:08.646Z,99.90
2018-10-19T21:42:37.741Z,99.90
2018-10-19T21:45:07.093Z,99.90
2018-10-19T21:47:36.118Z,99.90
2018-10-19T21:50:06.004Z,99.90
2018-10-19T21:52:35.300Z,99.90
2018-10-19T21:55:04.858Z,99.90
2018-10-19T21:57:33.912Z,99.90
2018-10-19T22:00:02.926Z,99.90
2018-10-19T22:02:31.946Z,99.90
2018-10-19T22:05:00.978Z,99.90
2018-10-19T22:07:30.153Z,99.90
2018-10-19T22:09:59.381Z,99.90
2018-10-19T22:12:28.397Z,99.90
2018-10-19T22:14:57.411Z,99.90
2018-10-19T22:17:26.419Z,99.90
2018-10-19T22:19:55.475Z,99.90
2018-10-19T22:22:24.511Z,99.90
2018-10-19T22:24:53.502Z,99.90
2018-10-19T22:27:22.610Z,99.90
2018-10-19T22:29:51.633Z,99.90
2018-10-19T22:32:20.721Z,99.90
2018-10-19T22:34:49.736Z,99.90
2018-10-19T22:37:18.791Z,99.90
2018-10-19T22:39:47.839Z,99.90
2018-10-19T22:42:17.259Z,99.90
2018-10-19T22:44:46.327Z,99.90
2018-10-19T22:47:15.655Z,99.90
2018-10-19T22:49:45.050Z,99.90
2018-10-19T22:52:14.245Z,99.90
2018-10-19T22:54:43.271Z,99.90
2018-10-19T22:57:12.317Z,99.90
2018-10-19T22:59:41.343Z,99.90
2018-10-19T23:02:10.443Z,99.90
2018-10-19T23:04:39.471Z,99.90
2018-10-19T23:07:08.534Z,99.90
2018-10-19T23:09:37.799Z,99.90
2018-10-19T23:12:06.937Z,99.90
2018-10-19T23:14:35.964Z,99.90
2018-10-19T23:17:05.414Z,99.90
2018-10-19T23:19:34.607Z,99.90
2018-10-19T23:22:03.677Z,99.90
2018-10-19T23:24:32.780Z,99.90
2018-10-19T23:27:01.787Z,99.90
2018-10-19T23:29:30.828Z,99.90
2018-10-19T23:31:59.890Z,99.90
2018-10-19T23:34:28.957Z,99.90
2018-10-19T23:36:58.185Z,99.90
2018-10-19T23:39:27.355Z,99.90
2018-10-19T23:41:56.506Z,99.90
2018-10-19T23:44:25.656Z,99.90
2018-10-19T23:46:54.743Z,99.90
2018-10-19T23:49:23.913Z,99.90
2018-10-19T23:51:53.137Z,99.90
2018-10-19T23:54:22.150Z,99.90
2018-10-19T23:56:51.150Z,99.90
2018-10-19T23:59:20.214Z,99.90
